Time;durP1;ratioP1;P1;durP2;ratioP2;P2;SDS_P1;SDS_P2;PMS_P1;PMS_P2;Temp;Humidity;BMP_temperature;BMP_pressure;BME280_temperature;BME280_humidity;BME280_pressure;Samples;Min_cycle;Max_cycle;Signal;HPM_P1;HPM_P2
2021/08/03 00:01:56;;;;;;;;;;;12.30;99.90;;;;;;5095985;28;19924;-76
2021/08/03 00:04:23;;;;;;;;;;;12.30;99.90;;;;;;5096126;28;19928;-77
2021/08/03 00:06:51;;;;;;;;;;;12.20;99.90;;;;;;5095972;28;19935;-76
2021/08/03 00:09:18;;;;;;;;;;;12.20;99.90;;;;;;5096280;28;19924;-78
2021/08/03 00:11:45;;;;;;;;;;;12.20;99.90;;;;;;5095957;28;19924;-77
2021/08/03 00:14:12;;;;;;;;;;;12.20;99.90;;;;;;5095707;28;20376;-78
2021/08/03 00:16:39;;;;;;;;;;;12.10;99.90;;;;;;5095769;28;20249;-76
2021/08/03 00:19:10;;;;;;;;;;;12.10;99.90;;;;;;5094989;28;20202;-76
2021/08/03 00:21:36;;;;;;;;;;;12.10;99.90;;;;;;5095577;28;19924;-77
2021/08/03 00:24:03;;;;;;;;;;;12.10;99.90;;;;;;5095601;28;19994;-76
2021/08/03 00:26:30;;;;;;;;;;;12.10;99.90;;;;;;5095570;28;20353;-76
2021/08/03 00:28:57;;;;;;;;;;;12.10;99.90;;;;;;5095481;28;19934;-76
2021/08/03 00:31:24;;;;;;;;;;;12.00;99.90;;;;;;5095796;28;19924;-76
2021/08/03 00:33:51;;;;;;;;;;;12.10;99.90;;;;;;5095865;28;19924;-77
2021/08/03 00:36:20;;;;;;;;;;;12.10;99.90;;;;;;5095500;28;19924;-76
2021/08/03 00:38:47;;;;;;;;;;;12.10;99.90;;;;;;5095502;28;19924;-77
2021/08/03 00:41:14;;;;;;;;;;;12.20;99.90;;;;;;5095468;28;20230;-76
2021/08/03 00:43:41;;;;;;;;;;;12.10;99.90;;;;;;5095231;28;19935;-76
2021/08/03 00:46:08;;;;;;;;;;;12.10;99.90;;;;;;5095303;28;19928;-76
2021/08/03 00:48:35;;;;;;;;;;;12.00;99.90;;;;;;5095208;28;20260;-76
2021/08/03 00:51:01;;;;;;;;;;;12.00;99.90;;;;;;5095431;28;19935;-76
2021/08/03 00:53:30;;;;;;;;;;;12.00;99.90;;;;;;5095320;28;19924;-76
2021/08/03 00:55:57;;;;;;;;;;;12.00;99.90;;;;;;5095308;28;19928;-76
2021/08/03 00:58:24;;;;;;;;;;;12.00;99.90;;;;;;5095368;28;20274;-76
2021/08/03 01:00:53;;;;;;;;;;;11.90;99.90;;;;;;5095424;28;19935;-76
2021/08/03 01:03:20;;;;;;;;;;;11.90;99.90;;;;;;5095051;28;19934;-77
2021/08/03 01:05:48;;;;;;;;;;;11.90;99.90;;;;;;5095097;28;19924;-76
2021/08/03 01:08:16;;;;;;;;;;;11.90;99.90;;;;;;5095208;28;19935;-77
2021/08/03 01:10:47;;;;;;;;;;;12.00;99.90;;;;;;5095091;28;19932;-76
2021/08/03 01:13:16;;;;;;;;;;;11.90;99.90;;;;;;5095363;28;19924;-78
2021/08/03 01:15:44;;;;;;;;;;;11.90;99.90;;;;;;5095190;28;19935;-76
2021/08/03 01:18:13;;;;;;;;;;;12.00;99.90;;;;;;5094960;28;19924;-77
2021/08/03 01:20:40;;;;;;;;;;;12.00;99.90;;;;;;5094912;28;19946;-76
2021/08/03 01:23:20;;;;;;;;;;;11.90;99.90;;;;;;5095307;28;19924;-76
2021/08/03 01:25:54;;;;;;;;;;;11.90;99.90;;;;;;5094992;28;19979;-76
2021/08/03 01:28:23;;;;;;;;;;;11.90;99.90;;;;;;5094920;28;20256;-76
2021/08/03 01:30:52;;;;;;;;;;;11.90;99.90;;;;;;5094872;28;19924;-76
2021/08/03 01:33:22;;;;;;;;;;;11.80;99.90;;;;;;5098074;28;19928;-76
2021/08/03 01:35:48;;;;;;;;;;;11.80;99.90;;;;;;5098761;28;19928;-76
2021/08/03 01:38:16;;;;;;;;;;;11.80;99.90;;;;;;5099008;28;19939;-76
2021/08/03 01:40:43;;;;;;;;;;;11.70;99.90;;;;;;5098710;28;19924;-76
2021/08/03 01:43:10;;;;;;;;;;;11.60;99.90;;;;;;5098769;28;19924;-76
2021/08/03 01:45:39;;;;;;;;;;;11.60;99.90;;;;;;5098599;28;20261;-76
2021/08/03 01:48:05;;;;;;;;;;;11.60;99.90;;;;;;5098632;28;19924;-76
2021/08/03 01:50:32;;;;;;;;;;;11.50;99.90;;;;;;5098645;28;20018;-76
2021/08/03 01:52:59;;;;;;;;;;;11.50;99.90;;;;;;5098591;28;19928;-76
2021/08/03 01:55:26;;;;;;;;;;;11.50;99.90;;;;;;5098971;28;19946;-76
2021/08/03 01:57:53;;;;;;;;;;;11.50;99.90;;;;;;5098476;28;20269;-75
2021/08/03 02:00:20;;;;;;;;;;;11.50;99.90;;;;;;5098318;28;19924;-76
2021/08/03 02:02:49;;;;;;;;;;;11.50;99.90;;;;;;5098235;28;19932;-75
2021/08/03 02:05:15;;;;;;;;;;;11.50;99.90;;;;;;5098648;28;19950;-76
2021/08/03 02:07:42;;;;;;;;;;;11.40;99.90;;;;;;5098151;28;19924;-76
2021/08/03 02:10:09;;;;;;;;;;;11.40;99.90;;;;;;5098385;28;19939;-76
2021/08/03 02:12:36;;;;;;;;;;;11.40;99.90;;;;;;5098186;28;20333;-76
2021/08/03 02:15:03;;;;;;;;;;;11.30;99.90;;;;;;5098192;28;19924;-76
2021/08/03 02:17:30;;;;;;;;;;;11.30;99.90;;;;;;5098653;28;20234;-76
2021/08/03 02:19:58;;;;;;;;;;;11.30;99.90;;;;;;5097981;28;19924;-77
2021/08/03 02:22:25;;;;;;;;;;;11.30;99.90;;;;;;5098244;28;20277;-75
2021/08/03 02:24:52;;;;;;;;;;;11.30;99.90;;;;;;5097739;28;19935;-76
2021/08/03 02:27:18;;;;;;;;;;;11.30;99.90;;;;;;5097945;28;19928;-76
2021/08/03 02:29:45;;;;;;;;;;;11.30;99.90;;;;;;5097832;28;20305;-76
2021/08/03 02:32:13;;;;;;;;;;;11.30;99.90;;;;;;5097765;28;19924;-75
2021/08/03 02:34:41;;;;;;;;;;;11.30;99.90;;;;;;5097742;28;20396;-76
2021/08/03 02:37:11;;;;;;;;;;;11.20;99.90;;;;;;5097660;28;20357;-76
2021/08/03 02:39:38;;;;;;;;;;;11.20;99.90;;;;;;5097525;28;19924;-76
2021/08/03 02:42:05;;;;;;;;;;;11.20;99.90;;;;;;5097615;28;19935;-77
2021/08/03 02:44:32;;;;;;;;;;;11.10;99.90;;;;;;5097164;28;20268;-77
2021/08/03 02:47:02;;;;;;;;;;;11.10;99.90;;;;;;5097836;28;19942;-77
2021/08/03 02:49:34;;;;;;;;;;;11.10;99.90;;;;;;5097700;28;19928;-76
2021/08/03 02:52:02;;;;;;;;;;;11.10;99.90;;;;;;5097420;28;20365;-76
2021/08/03 02:54:31;;;;;;;;;;;11.00;99.90;;;;;;5097411;28;20392;-76
2021/08/03 02:56:58;;;;;;;;;;;11.10;99.90;;;;;;5097289;28;19924;-76
2021/08/03 02:59:24;;;;;;;;;;;11.00;99.90;;;;;;5097175;28;19946;-76
2021/08/03 03:01:51;;;;;;;;;;;11.00;99.90;;;;;;5097617;28;19924;-79
2021/08/03 03:04:21;;;;;;;;;;;11.00;99.90;;;;;;5097019;28;20265;-79
2021/08/03 03:06:48;;;;;;;;;;;11.00;99.90;;;;;;5097146;28;19931;-78
2021/08/03 03:09:15;;;;;;;;;;;11.00;99.90;;;;;;5097090;28;19935;-78
2021/08/03 03:11:43;;;;;;;;;;;11.00;99.90;;;;;;5097013;28;19924;-79
2021/08/03 03:14:10;;;;;;;;;;;10.90;99.90;;;;;;5097129;28;19939;-79
2021/08/03 03:16:38;;;;;;;;;;;10.90;99.90;;;;;;5097065;28;19924;-79
2021/08/03 03:19:05;;;;;;;;;;;10.90;99.90;;;;;;5096820;28;19932;-80
2021/08/03 03:21:32;;;;;;;;;;;10.90;99.90;;;;;;5096913;28;19985;-79
2021/08/03 03:23:59;;;;;;;;;;;10.80;99.90;;;;;;5096805;28;19939;-81
2021/08/03 03:26:26;;;;;;;;;;;10.80;99.90;;;;;;5096736;28;20272;-78
2021/08/03 03:28:55;;;;;;;;;;;10.80;99.90;;;;;;5096683;28;19947;-78
2021/08/03 03:31:21;;;;;;;;;;;10.80;99.90;;;;;;5096538;28;19935;-78
2021/08/03 03:33:48;;;;;;;;;;;10.80;99.90;;;;;;5096728;28;20048;-79
2021/08/03 03:36:15;;;;;;;;;;;10.80;99.90;;;;;;5096657;28;20273;-78
2021/08/03 03:38:42;;;;;;;;;;;10.80;99.90;;;;;;5096494;28;19934;-78
2021/08/03 03:41:09;;;;;;;;;;;10.80;99.90;;;;;;5096284;28;19935;-79
2021/08/03 03:43:36;;;;;;;;;;;10.70;99.90;;;;;;5096570;28;20004;-79
2021/08/03 03:46:05;;;;;;;;;;;10.70;99.90;;;;;;5096222;28;19925;-78
2021/08/03 03:48:33;;;;;;;;;;;10.70;99.90;;;;;;5096445;28;19935;-80
2021/08/03 03:51:00;;;;;;;;;;;10.70;99.90;;;;;;5096267;28;19934;-78
2021/08/03 03:53:32;;;;;;;;;;;10.70;99.90;;;;;;5096287;28;19928;-79
2021/08/03 03:55:59;;;;;;;;;;;10.70;99.90;;;;;;5095453;28;19942;-79
2021/08/03 03:58:26;;;;;;;;;;;10.60;99.90;;;;;;5096144;28;20334;-78
2021/08/03 04:00:52;;;;;;;;;;;10.60;99.90;;;;;;5096232;28;19928;-78
2021/08/03 04:03:21;;;;;;;;;;;10.60;99.90;;;;;;5096053;28;19938;-78
2021/08/03 04:05:48;;;;;;;;;;;10.60;99.90;;;;;;5095878;28;19923;-78
2021/08/03 04:08:15;;;;;;;;;;;10.60;99.90;;;;;;5095929;28;19931;-78
2021/08/03 04:10:42;;;;;;;;;;;10.50;99.90;;;;;;5095797;28;20356;-78
2021/08/03 04:13:09;;;;;;;;;;;10.50;99.90;;;;;;5096297;28;19928;-78
2021/08/03 04:15:36;;;;;;;;;;;10.50;99.90;;;;;;5095822;28;19923;-78
2021/08/03 04:18:02;;;;;;;;;;;10.50;99.90;;;;;;5095867;28;19924;-78
2021/08/03 04:20:31;;;;;;;;;;;10.50;99.90;;;;;;5095915;28;19938;-78
2021/08/03 04:22:57;;;;;;;;;;;10.40;99.90;;;;;;5095642;28;19924;-80
2021/08/03 04:25:24;;;;;;;;;;;10.40;99.90;;;;;;5095789;28;19924;-79
2021/08/03 04:27:51;;;;;;;;;;;10.40;99.90;;;;;;5095609;28;19924;-79
2021/08/03 04:30:18;;;;;;;;;;;10.40;99.90;;;;;;5095771;28;19989;-79
2021/08/03 04:32:45;;;;;;;;;;;10.40;99.90;;;;;;5095560;28;19935;-79
2021/08/03 04:35:12;;;;;;;;;;;10.40;99.90;;;;;;5095362;28;20361;-78
2021/08/03 04:37:40;;;;;;;;;;;10.40;99.90;;;;;;5095321;28;19924;-78
2021/08/03 04:40:08;;;;;;;;;;;10.40;99.90;;;;;;5095367;28;20342;-78
2021/08/03 04:42:34;;;;;;;;;;;10.40;99.90;;;;;;5095537;28;19923;-79
2021/08/03 04:45:01;;;;;;;;;;;10.40;99.90;;;;;;5095391;28;19998;-78
2021/08/03 04:47:28;;;;;;;;;;;10.40;99.90;;;;;;5095470;28;19935;-78
2021/08/03 04:49:55;;;;;;;;;;;10.40;99.90;;;;;;5095152;28;19924;-78
2021/08/03 04:52:22;;;;;;;;;;;10.40;99.90;;;;;;5095172;28;19925;-79
2021/08/03 04:54:50;;;;;;;;;;;10.40;99.90;;;;;;5095247;28;20265;-79
2021/08/03 04:57:17;;;;;;;;;;;10.40;99.90;;;;;;5095253;28;19935;-79
2021/08/03 04:59:43;;;;;;;;;;;10.40;99.90;;;;;;5095186;28;19950;-78
2021/08/03 05:02:10;;;;;;;;;;;10.40;99.90;;;;;;5095254;28;19928;-78
2021/08/03 05:04:37;;;;;;;;;;;10.40;99.90;;;;;;5095041;28;19934;-79
2021/08/03 05:07:04;;;;;;;;;;;10.50;99.90;;;;;;5099912;28;19954;-79
2021/08/03 05:09:31;;;;;;;;;;;10.50;99.90;;;;;;5102061;28;19924;-79
2021/08/03 05:11:59;;;;;;;;;;;10.50;99.90;;;;;;5101867;28;19924;-79
2021/08/03 05:14:26;;;;;;;;;;;10.50;99.90;;;;;;5101911;28;19924;-78
2021/08/03 05:16:53;;;;;;;;;;;10.50;99.90;;;;;;5101969;28;19935;-79
2021/08/03 05:19:19;;;;;;;;;;;10.50;99.90;;;;;;5101640;28;19924;-77
2021/08/03 05:21:46;;;;;;;;;;;10.50;99.90;;;;;;5101927;28;19938;-80
2021/08/03 05:24:13;;;;;;;;;;;10.50;99.90;;;;;;5101682;28;20246;-79
2021/08/03 05:26:40;;;;;;;;;;;10.60;99.90;;;;;;5101682;28;19939;-80
2021/08/03 05:29:08;;;;;;;;;;;10.60;99.90;;;;;;5101710;28;19924;-79
2021/08/03 05:31:35;;;;;;;;;;;10.60;99.90;;;;;;5101777;28;19935;-80
2021/08/03 05:34:03;;;;;;;;;;;10.60;99.90;;;;;;5101627;28;19924;-80
2021/08/03 05:36:30;;;;;;;;;;;10.60;99.90;;;;;;5101772;28;19932;-79
2021/08/03 05:38:56;;;;;;;;;;;10.60;99.90;;;;;;5101701;28;20360;-80
2021/08/03 05:41:23;;;;;;;;;;;10.60;99.90;;;;;;5101476;28;19924;-78
2021/08/03 05:43:50;;;;;;;;;;;10.60;99.90;;;;;;5101661;28;19940;-79
2021/08/03 05:46:18;;;;;;;;;;;10.70;99.90;;;;;;5101557;28;20334;-79
2021/08/03 05:48:45;;;;;;;;;;;10.70;99.90;;;;;;5101273;28;20288;-80
2021/08/03 05:51:12;;;;;;;;;;;10.80;99.90;;;;;;5101686;28;19924;-80
2021/08/03 05:53:39;;;;;;;;;;;10.90;99.90;;;;;;5101405;28;19924;-80
2021/08/03 05:56:06;;;;;;;;;;;10.90;99.90;;;;;;5101272;28;20368;-78
2021/08/03 05:58:33;;;;;;;;;;;10.90;99.90;;;;;;5101257;28;19930;-78
2021/08/03 06:01:00;;;;;;;;;;;11.00;99.90;;;;;;5101361;28;19931;-78
2021/08/03 06:03:28;;;;;;;;;;;11.00;99.90;;;;;;5101344;28;19924;-78
2021/08/03 06:05:55;;;;;;;;;;;11.10;99.90;;;;;;5101245;28;19924;-79
2021/08/03 06:08:23;;;;;;;;;;;11.20;99.90;;;;;;5101754;28;19935;-78
2021/08/03 06:10:50;;;;;;;;;;;11.30;99.90;;;;;;5101318;28;20052;-78
2021/08/03 06:13:17;;;;;;;;;;;11.50;99.90;;;;;;5101292;28;19924;-78
2021/08/03 06:15:44;;;;;;;;;;;11.70;99.90;;;;;;5101226;28;19935;-79
2021/08/03 06:18:12;;;;;;;;;;;11.80;99.90;;;;;;5098835;28;19928;-76
2021/08/03 06:20:40;;;;;;;;;;;12.00;99.90;;;;;;5098239;28;19984;-76
2021/08/03 06:23:07;;;;;;;;;;;12.20;99.90;;;;;;5098350;28;19924;-77
2021/08/03 06:25:34;;;;;;;;;;;12.50;99.90;;;;;;5098052;28;19932;-76
2021/08/03 06:28:01;;;;;;;;;;;12.70;99.90;;;;;;5097949;28;20323;-76
2021/08/03 06:30:28;;;;;;;;;;;12.80;99.90;;;;;;5097830;28;19924;-76
2021/08/03 06:32:55;;;;;;;;;;;13.20;99.90;;;;;;5098051;28;19928;-75
2021/08/03 06:35:22;;;;;;;;;;;13.70;99.90;;;;;;5097948;28;20342;-75
2021/08/03 06:37:50;;;;;;;;;;;14.50;99.90;;;;;;5097677;28;19935;-75
2021/08/03 06:40:17;;;;;;;;;;;15.40;99.90;;;;;;5097724;28;20027;-76
2021/08/03 06:42:47;;;;;;;;;;;16.40;99.90;;;;;;5097640;28;19925;-76
2021/08/03 06:45:16;;;;;;;;;;;18.00;99.90;;;;;;5097411;28;19989;-76
2021/08/03 06:48:01;;;;;;;;;;;20.00;99.90;;;;;;5097908;28;19950;-76
2021/08/03 06:50:30;;;;;;;;;;;21.70;99.90;;;;;;5097748;28;19935;-76
2021/08/03 06:52:58;;;;;;;;;;;22.70;99.90;;;;;;5097258;28;19935;-76
2021/08/03 06:55:26;;;;;;;;;;;23.50;99.90;;;;;;5097287;28;19934;-76
2021/08/03 06:57:53;;;;;;;;;;;24.50;99.90;;;;;;5097342;28;19932;-76
2021/08/03 07:00:21;;;;;;;;;;;24.60;85.80;;;;;;5097455;28;19924;-76
2021/08/03 07:02:48;;;;;;;;;;;24.00;86.10;;;;;;5097212;28;20429;-76
2021/08/03 07:05:16;;;;;;;;;;;23.30;93.00;;;;;;5097357;28;19924;-76
2021/08/03 07:07:43;;;;;;;;;;;22.40;99.50;;;;;;5097192;28;19989;-76
2021/08/03 07:10:12;;;;;;;;;;;21.40;97.70;;;;;;5097226;28;20238;-76
2021/08/03 07:12:39;;;;;;;;;;;20.90;99.90;;;;;;5097189;28;19935;-76
2021/08/03 07:15:06;;;;;;;;;;;20.40;99.90;;;;;;5096848;28;19924;-76
2021/08/03 07:17:33;;;;;;;;;;;19.40;99.90;;;;;;5097330;28;20001;-76
2021/08/03 07:20:00;;;;;;;;;;;18.50;99.90;;;;;;5097036;28;19935;-76
2021/08/03 07:22:27;;;;;;;;;;;17.70;99.90;;;;;;5096962;28;19924;-75
2021/08/03 07:24:54;;;;;;;;;;;17.20;99.90;;;;;;5096804;28;20345;-75
2021/08/03 07:27:22;;;;;;;;;;;17.10;99.90;;;;;;5096808;28;19935;-75
2021/08/03 07:29:49;;;;;;;;;;;18.30;99.90;;;;;;5095647;28;20368;-76
2021/08/03 07:32:16;;;;;;;4.40;2.67;;;19.70;99.90;;;;;;5095293;28;20396;-75
2021/08/03 07:34:43;;;;;;;5.32;2.58;;;21.20;99.90;;;;;;5096388;28;20122;-75
2021/08/03 07:37:11;;;;;;;3.70;2.15;;;23.20;99.90;;;;;;5096346;28;20048;-76
2021/08/03 07:39:39;;;;;;;4.88;2.30;;;25.00;97.40;;;;;;5095928;28;20385;-76
2021/08/03 07:42:06;;;;;;;10.30;2.35;;;26.80;94.40;;;;;;5096099;28;20055;-76
2021/08/03 07:44:35;;;;;;;3.30;2.30;;;28.40;78.80;;;;;;5095892;28;20066;-76
2021/08/03 07:47:02;;;;;;;4.78;1.95;;;29.70;67.40;;;;;;5095937;28;20044;-76
2021/08/03 07:49:29;;;;;;;4.57;2.30;;;30.60;64.70;;;;;;5095937;28;20054;-76
2021/08/03 07:51:57;;;;;;;4.03;2.63;;;31.30;56.30;;;;;;5095829;28;20058;-77
2021/08/03 07:54:24;;;;;;;3.38;2.38;;;31.40;58.30;;;;;;5095627;28;20051;-76
2021/08/03 07:56:51;;;;;;;3.85;2.13;;;31.70;56.70;;;;;;5095911;28;20044;-76
2021/08/03 07:59:18;;;;;;;5.93;2.47;;;31.90;56.30;;;;;;5096057;28;20048;-76
2021/08/03 08:01:47;;;;;;;2.80;1.90;;;32.40;56.10;;;;;;5095922;28;20054;-76
2021/08/03 08:04:14;;;;;;;5.85;3.47;;;32.50;52.60;;;;;;5095680;28;20059;-76
2021/08/03 08:06:41;;;;;;;3.40;2.30;;;33.00;55.30;;;;;;5095588;28;20052;-76
2021/08/03 08:09:08;;;;;;;3.85;2.03;;;33.10;52.10;;;;;;5095967;28;20048;-76
2021/08/03 08:11:35;;;;;;;3.10;2.25;;;32.80;50.80;;;;;;5095494;28;20048;-76
2021/08/03 08:14:02;;;;;;;7.90;2.70;;;31.60;50.90;;;;;;5095527;28;20134;-76
2021/08/03 08:16:29;;;;;;;3.50;2.43;;;28.70;51.70;;;;;;5095645;28;20047;-76
2021/08/03 08:18:57;;;;;;;;;;;27.70;55.70;;;;;;5095760;28;20461;-76
2021/08/03 08:21:25;;;;;;;3.13;2.23;;;25.80;58.80;;;;;;5094265;28;20400;-76
2021/08/03 08:23:52;;;;;;;4.10;2.00;;;24.00;62.50;;;;;;5095499;28;20059;-76
2021/08/03 08:26:19;;;;;;;9.20;2.80;;;22.60;76.80;;;;;;5095550;28;20048;-76
2021/08/03 08:28:46;;;;;;;4.18;2.22;;;21.50;91.90;;;;;;5095127;28;20059;-75
2021/08/03 08:31:13;;;;;;;3.05;1.73;;;20.80;95.60;;;;;;5095441;28;20052;-75
2021/08/03 08:33:40;;;;;;;6.18;2.50;;;20.30;99.90;;;;;;5095400;28;20048;-75
2021/08/03 08:36:08;;;;;;;3.67;2.38;;;19.90;99.90;;;;;;5095270;28;20051;-75
2021/08/03 08:38:35;;;;;;;5.80;2.88;;;19.40;99.90;;;;;;5095222;28;20063;-75
2021/08/03 08:41:03;;;;;;;5.63;3.08;;;19.00;99.90;;;;;;5095065;28;20050;-75
2021/08/03 08:43:30;;;;;;;6.57;2.70;;;18.70;99.90;;;;;;5095138;28;20059;-75
2021/08/03 08:45:57;;;;;;;5.20;3.15;;;18.50;99.90;;;;;;5094975;28;20051;-75
2021/08/03 08:48:24;;;;;;;11.02;3.75;;;18.40;99.90;;;;;;5095056;28;20048;-75
2021/08/03 08:50:54;;;;;;;5.03;2.90;;;18.30;99.90;;;;;;5094858;28;20449;-75
2021/08/03 08:53:24;;;;;;;;;;;18.30;99.90;;;;;;5095345;28;20067;-75
2021/08/03 08:55:51;;;;;;;;;;;18.30;99.90;;;;;;5095574;28;19920;-75
2021/08/03 08:58:18;;;;;;;;;;;18.30;99.90;;;;;;5095088;28;19931;-76
2021/08/03 09:00:44;;;;;;;;;;;18.30;99.90;;;;;;5095193;28;19934;-76
2021/08/03 09:03:11;;;;;;;;;;;18.30;99.90;;;;;;5095310;28;19920;-75
2021/08/03 09:05:39;;;;;;;;;;;18.30;99.90;;;;;;5095101;28;20253;-75
2021/08/03 09:08:06;;;;;;;;;;;18.20;99.90;;;;;;5094937;28;20325;-75
2021/08/03 09:10:35;;;;;;;;;;;18.10;99.90;;;;;;5095480;28;19920;-75
2021/08/03 09:13:03;;;;;;;;;;;18.10;99.90;;;;;;5095403;28;19926;-75
2021/08/03 09:15:30;;;;;;;;;;;18.10;99.90;;;;;;5095070;28;19920;-75
2021/08/03 09:18:16;;;;;;;;;;;18.00;99.90;;;;;;5095300;28;19920;-75
2021/08/03 09:20:43;;;;;;;;;;;18.00;99.90;;;;;;5095146;28;19930;-75
2021/08/03 09:23:10;;;;;;;;;;;17.90;99.90;;;;;;5095218;28;19930;-75
2021/08/03 09:25:38;;;;;;;;;;;17.90;99.90;;;;;;5095308;28;19920;-75
2021/08/03 09:28:05;;;;;;;;;;;17.80;99.90;;;;;;5095133;28;20411;-75
2021/08/03 09:30:33;;;;;;;;;;;17.70;99.90;;;;;;5095074;28;19920;-75
2021/08/03 09:32:59;;;;;;;;;;;17.70;99.90;;;;;;5095134;28;20273;-75
2021/08/03 09:35:27;;;;;;;;;;;17.60;99.90;;;;;;5094802;28;19920;-75
2021/08/03 09:37:54;;;;;;;;;;;17.60;99.90;;;;;;5095242;28;19920;-75
2021/08/03 09:40:21;;;;;;;;;;;17.60;99.90;;;;;;5094893;28;19938;-75
2021/08/03 09:42:59;;;;;;;;;;;17.60;99.90;;;;;;5094864;28;19931;-75
2021/08/03 09:45:26;;;;;;;;;;;17.60;99.90;;;;;;5095109;28;19981;-75
2021/08/03 09:47:53;;;;;;;;;;;17.60;99.90;;;;;;5094494;28;20392;-75
2021/08/03 09:50:20;;;;;;;;;;;17.60;99.90;;;;;;5094628;28;19920;-75
2021/08/03 09:52:48;;;;;;;;;;;17.60;99.90;;;;;;5095217;28;19930;-75
2021/08/03 09:55:15;;;;;;;;;;;17.60;99.90;;;;;;5098525;28;20014;-75
2021/08/03 09:57:42;;;;;;;;;;;17.60;99.90;;;;;;5098468;28;19931;-75
2021/08/03 10:00:23;;;;;;;;;;;17.50;99.90;;;;;;5098445;28;20238;-75
2021/08/03 10:02:52;;;;;;;;;;;17.50;99.90;;;;;;5098463;28;19920;-75
2021/08/03 10:05:18;;;;;;;;;;;17.50;99.90;;;;;;5098532;28;19920;-75
2021/08/03 10:07:45;;;;;;;;;;;17.40;99.90;;;;;;5098197;28;19924;-75
2021/08/03 10:10:13;;;;;;;;;;;17.40;99.90;;;;;;5098157;28;20349;-75
2021/08/03 10:12:39;;;;;;;;;;;17.40;99.90;;;;;;5098115;28;19920;-75
2021/08/03 10:15:08;;;;;;;;;;;17.40;99.90;;;;;;5098236;28;19928;-75
2021/08/03 10:17:35;;;;;;;;;;;17.40;99.90;;;;;;5098209;28;19931;-75
2021/08/03 10:20:03;;;;;;;;;;;17.40;99.90;;;;;;5097996;28;19920;-75
2021/08/03 10:22:31;;;;;;;;;;;17.40;99.90;;;;;;5097863;28;19920;-75
2021/08/03 10:24:59;;;;;;;;;;;17.40;99.90;;;;;;5098135;28;19920;-76
2021/08/03 10:27:39;;;;;;;;;;;17.40;99.90;;;;;;5097781;28;19931;-75
2021/08/03 10:30:08;;;;;;;;;;;17.40;99.90;;;;;;5097832;28;20030;-75
2021/08/03 10:32:40;;;;;;;;;;;17.40;99.90;;;;;;5097601;28;19920;-75
2021/08/03 10:35:16;;;;;;;;;;;17.50;99.90;;;;;;5097575;28;19920;-75
2021/08/03 10:38:07;;;;;;;;;;;17.50;99.90;;;;;;5098058;28;20253;-75
2021/08/03 10:40:55;;;;;;;;;;;17.60;99.90;;;;;;5097890;28;20031;-75
2021/08/03 10:43:23;;;;;;;;;;;17.60;99.90;;;;;;5097646;28;20252;-75
2021/08/03 10:46:15;;;;;;;;;;;17.70;99.90;;;;;;5097561;28;19920;-75
2021/08/03 10:48:45;;;;;;;;;;;17.80;99.90;;;;;;5097490;28;19952;-75
2021/08/03 10:51:41;;;;;;;;;;;17.80;99.90;;;;;;5097527;28;19931;-75
2021/08/03 10:54:11;;;;;;;;;;;17.80;99.90;;;;;;5075474;28;19920;-75
2021/08/03 10:57:01;;;;;;;;;;;17.80;99.90;;;;;;5075578;28;19963;-75
2021/08/03 10:59:38;;;;;;;;;;;17.80;99.90;;;;;;5072451;28;19920;-75
2021/08/03 11:02:07;;;;;;;;;;;17.70;99.90;;;;;;5075785;28;19942;-75
2021/08/03 11:04:52;;;;;;;;;;;17.80;99.90;;;;;;5075101;28;20019;-75
2021/08/03 11:07:29;;;;;;;;;;;17.80;99.90;;;;;;5075163;28;19920;-75
2021/08/03 11:10:03;;;;;;;;;;;17.70;99.90;;;;;;5075157;28;20055;-75
2021/08/03 11:12:35;;;;;;;;;;;17.80;99.90;;;;;;5075248;28;19930;-75
2021/08/03 11:15:19;;;;;;;;;;;17.80;99.90;;;;;;5075174;28;19947;-75
2021/08/03 11:17:51;;;;;;;;;;;17.90;99.90;;;;;;5073331;28;19924;-75
2021/08/03 11:20:39;;;;;;;;;;;18.00;99.90;;;;;;5076708;28;19920;-75
2021/08/03 11:23:12;;;;;;;;;;;18.10;99.90;;;;;;5069426;28;20302;-75
2021/08/03 11:25:41;;;;;;;;;;;18.10;99.90;;;;;;5076510;28;19982;-75
2021/08/03 11:28:09;;;;;;;;;;;18.20;99.90;;;;;;5076520;28;19920;-75
2021/08/03 11:30:38;;;;;;;;;;;18.10;99.90;;;;;;5076542;28;19924;-75
2021/08/03 11:33:06;;;;;;;;;;;18.00;99.90;;;;;;5076415;28;19967;-75
2021/08/03 11:35:35;;;;;;;;;;;18.00;99.90;;;;;;5076410;28;19920;-75
2021/08/03 11:38:03;;;;;;;;;;;18.00;99.90;;;;;;5076411;28;19920;-75
2021/08/03 11:40:30;;;;;;;;;;;17.90;99.90;;;;;;5076355;28;20261;-75
2021/08/03 11:43:05;;;;;;;;;;;18.00;99.90;;;;;;5074931;28;19920;-75
2021/08/03 11:45:34;;;;;;;;;;;18.00;99.90;;;;;;5076118;28;19921;-75
2021/08/03 11:48:01;;;;;;;;;;;18.00;99.90;;;;;;5076513;28;19920;-75
2021/08/03 11:50:29;;;;;;;;;;;18.00;99.90;;;;;;5075999;28;19931;-75
2021/08/03 11:53:03;;;;;;;;;;;18.00;99.90;;;;;;5076172;28;19943;-75
2021/08/03 11:55:31;;;;;;;;;;;18.00;99.90;;;;;;5076218;28;20334;-75
2021/08/03 11:58:01;;;;;;;;;;;18.10;99.90;;;;;;5075704;28;19927;-75
2021/08/03 12:00:29;;;;;;;;;;;18.20;99.90;;;;;;5076189;28;19946;-75
2021/08/03 12:02:58;;;;;;;;;;;18.30;99.90;;;;;;5075947;28;19958;-75
2021/08/03 12:05:30;;;;;;;;;;;18.30;99.90;;;;;;5075669;28;20338;-75
2021/08/03 12:08:04;;;;;;;;;;;18.40;99.90;;;;;;5075607;28;19920;-75
2021/08/03 12:10:31;;;;;;;;;;;18.40;99.90;;;;;;5075754;28;19921;-75
2021/08/03 12:12:58;;;;;;;;;;;18.50;99.90;;;;;;5075805;28;20355;-75
2021/08/03 12:15:27;;;;;;;;;;;18.50;99.90;;;;;;5074796;28;19920;-75
2021/08/03 12:18:08;;;;;;;;;;;18.40;99.90;;;;;;5055648;28;19921;-75
2021/08/03 12:20:39;;;;;;;;;;;18.40;99.90;;;;;;5055603;28;19920;-75
2021/08/03 12:23:14;;;;;;;;;;;18.40;99.90;;;;;;5055472;28;19925;-75
2021/08/03 12:25:59;;;;;;;;;;;18.40;99.90;;;;;;5055437;28;19921;-75
2021/08/03 12:28:26;;;;;;;;;;;18.40;99.90;;;;;;5055251;28;20015;-75
2021/08/03 12:30:56;;;;;;;;;;;18.50;99.90;;;;;;5055263;28;19986;-82
2021/08/03 12:33:30;;;;;;;;;;;18.50;99.90;;;;;;5055452;28;20281;-76
2021/08/03 12:36:00;;;;;;;;;;;18.60;99.90;;;;;;5055233;28;19921;-75
2021/08/03 12:38:27;;;;;;;;;;;18.70;99.90;;;;;;5055439;28;19921;-75
2021/08/03 12:40:54;;;;;;;;;;;18.80;99.90;;;;;;5055336;28;19927;-74
2021/08/03 12:43:36;;;;;;;;;;;18.80;99.90;;;;;;5054978;28;19927;-75
2021/08/03 12:46:04;;;;;;;;;;;18.90;99.90;;;;;;5055255;28;19921;-75
2021/08/03 12:48:31;;;;;;;;;;;19.00;99.90;;;;;;5055369;28;19921;-75
2021/08/03 12:51:00;;;;;;;;;;;19.00;99.90;;;;;;5055267;28;20016;-75
2021/08/03 12:53:27;;;;;;;;;;;19.00;99.90;;;;;;5055193;28;19931;-76
2021/08/03 12:55:56;;;;;;;;;;;18.90;99.90;;;;;;5054899;28;20331;-75
2021/08/03 12:58:32;;;;;;;;;;;18.90;99.90;;;;;;5054931;28;19932;-76
2021/08/03 13:01:10;;;;;;;;;;;18.80;99.90;;;;;;5055109;28;20346;-76
2021/08/03 13:03:37;;;;;;;;;;;18.70;99.90;;;;;;5054941;28;19928;-75
2021/08/03 13:06:04;;;;;;;;;;;18.70;99.90;;;;;;5054908;28;19920;-76
2021/08/03 13:08:31;;;;;;;;;;;18.70;99.90;;;;;;5055053;28;19921;-76
2021/08/03 13:10:58;;;;;;;;;;;18.70;99.90;;;;;;5055083;28;19943;-76
2021/08/03 13:13:26;;;;;;;;;;;18.70;99.90;;;;;;5054594;28;19921;-75
2021/08/03 13:15:54;;;;;;;;;;;18.90;99.90;;;;;;5057976;28;20373;-76
2021/08/03 13:18:23;;;;;;;;;;;19.00;99.90;;;;;;5074744;28;19943;-75
2021/08/03 13:20:51;;;;;;;;;;;19.00;99.90;;;;;;5074877;28;20270;-76
2021/08/03 13:23:20;;;;;;;;;;;19.10;99.90;;;;;;5074928;28;19920;-74
2021/08/03 13:25:48;;;;;;;;;;;19.10;99.90;;;;;;5074648;28;20272;-74
2021/08/03 13:28:19;;;;;;;;;;;19.10;99.90;;;;;;5077771;28;19920;-74
2021/08/03 13:30:47;;;;;;;;;;;19.10;99.90;;;;;;5078842;28;19925;-75
2021/08/03 13:33:17;;;;;;;;;;;19.20;99.90;;;;;;5078380;28;19927;-75
2021/08/03 13:35:46;;;;;;;;;;;19.30;99.90;;;;;;5078818;28;19921;-75
2021/08/03 13:38:16;;;;;;;;;;;19.40;99.90;;;;;;5078718;28;19931;-75
2021/08/03 13:40:46;;;;;;;;;;;19.50;99.90;;;;;;5078891;28;19946;-75
2021/08/03 13:43:14;;;;;;;;;;;19.60;99.90;;;;;;5078616;28;19960;-75
2021/08/03 13:45:41;;;;;;;;;;;19.60;99.90;;;;;;5078694;28;19931;-75
2021/08/03 13:48:09;;;;;;;;;;;19.50;99.90;;;;;;5078502;28;19932;-75
2021/08/03 13:50:37;;;;;;;;;;;19.40;99.90;;;;;;5078448;28;19935;-75
2021/08/03 13:53:07;;;;;;;;;;;19.30;99.90;;;;;;5078355;28;19931;-75
2021/08/03 13:55:35;;;;;;;;;;;19.20;99.90;;;;;;5078398;28;19920;-75
2021/08/03 13:58:03;;;;;;;;;;;19.20;99.90;;;;;;5078205;28;20365;-75
2021/08/03 14:00:31;;;;;;;;;;;19.20;99.90;;;;;;5078454;28;19920;-75
2021/08/03 14:02:59;;;;;;;;;;;19.20;99.90;;;;;;5078705;28;19920;-75
2021/08/03 14:05:27;;;;;;;;;;;19.20;99.90;;;;;;5077928;28;19930;-75
2021/08/03 14:07:55;;;;;;;;;;;19.30;99.90;;;;;;5078083;28;19920;-75
2021/08/03 14:10:25;;;;;;;;;;;19.40;99.90;;;;;;5077976;28;19927;-75
2021/08/03 14:12:53;;;;;;;;;;;19.40;99.90;;;;;;5078154;28;19928;-75
2021/08/03 14:15:24;;;;;;;;;;;19.40;99.90;;;;;;5078041;28;19982;-75
2021/08/03 14:17:51;;;;;;;;;;;19.40;99.90;;;;;;5077966;28;20231;-75